Time;durP1;ratioP1;P1;durP2;ratioP2;P2;SDS_P1;SDS_P2;PMS_P1;PMS_P2;Temp;Humidity;BMP_temperature;BMP_pressure;BME280_temperature;BME280_humidity;BME280_pressure;Samples;Min_cycle;Max_cycle;Signal;HPM_P1;HPM_P2
2021/12/03 00:00:30;;;;;;;2.78;0.68;;;19.10;54.70;;;;;;6213464;23;20027;-68
2021/12/03 00:02:56;;;;;;;1.35;0.77;;;19.10;54.60;;;;;;6164698;23;20080;-68
2021/12/03 00:05:21;;;;;;;1.65;0.50;;;19.10;54.70;;;;;;6215648;23;20004;-68
2021/12/03 00:07:47;;;;;;;0.88;0.68;;;19.10;54.70;;;;;;6215696;23;20340;-68
2021/12/03 00:10:14;;;;;;;0.80;0.70;;;19.10;54.70;;;;;;6188694;23;20023;-68
2021/12/03 00:12:40;;;;;;;1.67;0.57;;;19.10;54.70;;;;;;6189636;23;20001;-68
2021/12/03 00:15:07;;;;;;;0.82;0.30;;;19.10;54.70;;;;;;6188979;23;20004;-68
2021/12/03 00:17:33;;;;;;;1.25;0.80;;;19.10;54.70;;;;;;6189292;23;20001;-68
2021/12/03 00:19:59;;;;;;;2.75;0.90;;;19.10;54.80;;;;;;6189093;23;20004;-68
2021/12/03 00:22:24;;;;;;;0.70;0.60;;;19.10;54.80;;;;;;6188973;23;20001;-68
2021/12/03 00:24:50;;;;;;;1.75;0.80;;;19.10;54.90;;;;;;6215243;23;20432;-68
2021/12/03 00:27:16;;;;;;;1.58;0.80;;;19.10;54.90;;;;;;6188685;23;19997;-68
2021/12/03 00:29:41;;;;;;;1.95;0.75;;;19.10;54.90;;;;;;6215473;23;20322;-68
2021/12/03 00:32:07;;;;;;;2.42;0.93;;;19.10;54.90;;;;;;6215444;23;20011;-68
2021/12/03 00:34:33;;;;;;;0.70;0.70;;;19.10;54.90;;;;;;6215382;23;20011;-68
2021/12/03 00:36:59;;;;;;;0.52;0.47;;;19.10;54.90;;;;;;6215471;23;20035;-68
2021/12/03 00:39:24;;;;;;;0.88;0.70;;;19.10;54.90;;;;;;6188468;23;20063;-68
2021/12/03 00:41:57;;;;;;;2.40;0.65;;;19.10;55.00;;;;;;6215312;23;20318;-68
2021/12/03 00:44:24;;;;;;;;;;;19.10;55.00;;;;;;6215762;23;20451;-68
2021/12/03 00:46:50;;;;;;;0.40;0.40;;;19.00;54.90;;;;;;6189379;23;19921;-68
2021/12/03 00:49:15;;;;;;;0.60;0.55;;;19.00;54.90;;;;;;6215261;23;20448;-68
2021/12/03 00:51:41;;;;;;;0.50;0.50;;;19.00;54.90;;;;;;6188772;23;20084;-68
2021/12/03 00:54:06;;;;;;;0.55;0.43;;;19.00;54.90;;;;;;6214384;23;20073;-68
2021/12/03 00:56:32;;;;;;;0.98;0.68;;;19.00;54.90;;;;;;6188752;23;20310;-68
2021/12/03 00:58:58;;;;;;;0.77;0.60;;;19.10;55.00;;;;;;6215261;23;20003;-68
2021/12/03 01:01:23;;;;;;;0.63;0.50;;;19.00;54.90;;;;;;6215120;23;20004;-68
2021/12/03 01:03:49;;;;;;;1.83;0.57;;;19.00;54.90;;;;;;6188666;23;20012;-68
2021/12/03 01:06:15;;;;;;;1.50;0.40;;;19.00;54.90;;;;;;6188536;23;19996;-68
2021/12/03 01:08:40;;;;;;;1.40;0.68;;;19.10;55.00;;;;;;6215206;23;19996;-68
2021/12/03 01:11:07;;;;;;;0.85;0.60;;;19.00;55.00;;;;;;6215038;23;20001;-68
2021/12/03 01:13:33;;;;;;;9.60;0.70;;;19.10;55.00;;;;;;6188845;23;20005;-68
2021/12/03 01:15:59;;;;;;;0.85;0.55;;;19.10;55.00;;;;;;6188794;23;20012;-68
2021/12/03 01:18:25;;;;;;;1.67;0.35;;;19.10;55.00;;;;;;6214827;23;20005;-68
2021/12/03 01:20:50;;;;;;;1.73;0.60;;;19.10;55.00;;;;;;6215072;23;20005;-68
2021/12/03 01:23:16;;;;;;;0.45;0.45;;;19.10;55.00;;;;;;6214381;23;20428;-68
2021/12/03 01:25:41;;;;;;;1.05;0.55;;;19.10;55.00;;;;;;6214935;23;19997;-68
2021/12/03 01:28:08;;;;;;;0.75;0.50;;;19.10;55.00;;;;;;6214768;23;20017;-68
2021/12/03 01:30:33;;;;;;;0.50;0.40;;;19.10;55.20;;;;;;6188378;23;20424;-68
2021/12/03 01:33:00;;;;;;;0.40;0.40;;;19.10;55.10;;;;;;6163664;23;20007;-68
2021/12/03 01:35:26;;;;;;;0.50;0.50;;;19.10;55.10;;;;;;6188471;23;20005;-68
2021/12/03 01:37:52;;;;;;;0.82;0.50;;;19.10;55.20;;;;;;6163410;23;20027;-68
2021/12/03 01:40:19;;;;;;;0.75;0.60;;;19.10;55.20;;;;;;6188589;23;20339;-68
2021/12/03 01:42:45;;;;;;;2.85;0.60;;;19.10;55.20;;;;;;6215366;23;20001;-68
2021/12/03 01:45:20;;;;;;;0.60;0.50;;;19.10;55.20;;;;;;6188296;23;20003;-68
2021/12/03 01:47:46;;;;;;;0.77;0.50;;;19.10;55.20;;;;;;6188311;23;20050;-68
2021/12/03 01:50:12;;;;;;;0.75;0.50;;;19.10;55.20;;;;;;6188186;23;20000;-68
2021/12/03 01:52:38;;;;;;;0.32;0.30;;;19.10;55.20;;;;;;6187845;23;20343;-68
2021/12/03 01:55:04;;;;;;;1.58;0.45;;;19.10;55.30;;;;;;6188369;23;20055;-68
2021/12/03 01:57:30;;;;;;;0.57;0.50;;;19.10;55.30;;;;;;6214646;23;20028;-68
2021/12/03 01:59:56;;;;;;;0.93;0.50;;;19.10;55.30;;;;;;6188184;23;20007;-68
2021/12/03 02:02:21;;;;;;;0.77;0.50;;;19.10;55.30;;;;;;6214381;23;20000;-68
2021/12/03 02:04:47;;;;;;;0.75;0.50;;;19.10;55.30;;;;;;6188359;23;20001;-68
2021/12/03 02:07:14;;;;;;;1.52;0.50;;;19.10;55.40;;;;;;6187757;23;20345;-68
2021/12/03 02:09:39;;;;;;;0.93;0.50;;;19.10;55.40;;;;;;6163749;23;20005;-68
2021/12/03 02:12:05;;;;;;;1.17;0.85;;;19.10;55.40;;;;;;6214613;23;20478;-68
2021/12/03 02:14:31;;;;;;;0.60;0.50;;;19.10;55.40;;;;;;6214489;23;20001;-68
2021/12/03 02:16:56;;;;;;;0.60;0.40;;;19.10;55.50;;;;;;6214565;23;20012;-68
2021/12/03 02:19:22;;;;;;;1.25;0.50;;;19.10;55.40;;;;;;6188091;23;20000;-68
2021/12/03 02:21:48;;;;;;;0.75;0.60;;;19.10;56.40;;;;;;6214044;23;20449;-68
2021/12/03 02:24:14;;;;;;;0.80;0.43;;;19.10;55.50;;;;;;6214549;23;20127;-68
2021/12/03 02:26:41;;;;;;;1.15;0.50;;;19.10;55.50;;;;;;6188363;23;20001;-68
2021/12/03 02:29:07;;;;;;;0.47;0.47;;;19.10;55.50;;;;;;6214339;23;20013;-68
2021/12/03 02:31:33;;;;;;;1.00;0.50;;;19.10;55.50;;;;;;6163240;23;20007;-68
2021/12/03 02:33:59;;;;;;;1.05;0.68;;;19.10;55.50;;;;;;6214572;23;20024;-68
2021/12/03 02:36:24;;;;;;;1.70;0.47;;;19.10;55.60;;;;;;6187291;23;20087;-68
2021/12/03 02:38:50;;;;;;;0.52;0.52;;;19.10;55.60;;;;;;6214714;23;20008;-68
2021/12/03 02:41:16;;;;;;;1.45;0.47;;;19.10;55.60;;;;;;6214499;23;20467;-68
2021/12/03 02:43:41;;;;;;;0.85;0.60;;;19.10;55.60;;;;;;6187957;23;20444;-68
2021/12/03 02:46:07;;;;;;;0.63;0.52;;;19.10;55.60;;;;;;6214660;23;20004;-68
2021/12/03 02:48:35;;;;;;;0.50;0.40;;;19.10;55.60;;;;;;6214520;23;20031;-68
2021/12/03 02:51:01;;;;;;;0.73;0.40;;;19.10;55.70;;;;;;6164016;23;19996;-68
2021/12/03 02:53:26;;;;;;;0.60;0.50;;;19.10;55.70;;;;;;6188002;23;20011;-68
2021/12/03 02:55:52;;;;;;;1.20;0.57;;;19.10;55.70;;;;;;6188078;23;20005;-68
2021/12/03 02:58:18;;;;;;;1.08;0.50;;;19.10;55.70;;;;;;6214463;23;20396;-68
2021/12/03 03:00:44;;;;;;;0.57;0.40;;;19.10;55.80;;;;;;6188178;23;20001;-68
2021/12/03 03:03:10;;;;;;;1.20;0.50;;;19.10;55.70;;;;;;6214336;23;20005;-68
2021/12/03 03:05:35;;;;;;;1.10;0.57;;;19.10;55.70;;;;;;6162739;23;20779;-68
2021/12/03 03:08:02;;;;;;;0.40;0.40;;;19.10;55.80;;;;;;6214521;23;20091;-68
2021/12/03 03:10:30;;;;;;;2.17;0.50;;;19.10;55.80;;;;;;6214274;23;20003;-68
2021/12/03 03:12:57;;;;;;;0.57;0.50;;;19.10;55.80;;;;;;6188549;23;20000;-68
2021/12/03 03:15:23;;;;;;;1.23;0.65;;;19.10;55.80;;;;;;6188221;23;20035;-68
2021/12/03 03:17:48;;;;;;;0.80;0.40;;;19.10;55.80;;;;;;6187962;23;20156;-67
2021/12/03 03:20:14;;;;;;;1.35;0.52;;;19.10;55.90;;;;;;6188288;23;20005;-67
2021/12/03 03:22:41;;;;;;;0.47;0.45;;;19.10;55.90;;;;;;6188070;23;20028;-67
2021/12/03 03:25:08;;;;;;;0.65;0.50;;;19.10;55.90;;;;;;6214772;23;20008;-72
2021/12/03 03:27:34;;;;;;;0.40;0.40;;;19.10;55.80;;;;;;6163434;23;20021;-68
2021/12/03 03:30:00;;;;;;;1.40;0.50;;;19.10;55.90;;;;;;6214818;23;20011;-68
2021/12/03 03:32:25;;;;;;;0.50;0.40;;;19.10;55.80;;;;;;6188452;23;20079;-68
2021/12/03 03:34:51;;;;;;;0.82;0.52;;;19.10;55.80;;;;;;6163565;23;20029;-68
2021/12/03 03:37:17;;;;;;;2.03;1.00;;;19.10;55.80;;;;;;6214813;23;20004;-68
2021/12/03 03:39:43;;;;;;;1.60;0.70;;;19.10;55.80;;;;;;6188359;23;20005;-68
2021/12/03 03:42:09;;;;;;;0.45;0.45;;;19.10;55.80;;;;;;6214636;23;20004;-68
2021/12/03 03:44:35;;;;;;;1.25;0.43;;;19.10;55.80;;;;;;6214687;23;20013;-68
2021/12/03 03:47:01;;;;;;;2.08;0.45;;;19.10;55.80;;;;;;6187787;23;20075;-68
2021/12/03 03:49:27;;;;;;;1.15;0.40;;;19.10;55.80;;;;;;6214626;23;19997;-68
2021/12/03 03:51:53;;;;;;;0.40;0.40;;;19.10;55.80;;;;;;6214647;23;19997;-68
2021/12/03 03:54:18;;;;;;;0.93;0.70;;;19.10;56.00;;;;;;6188123;23;20024;-68
2021/12/03 03:56:44;;;;;;;1.00;0.43;;;19.10;55.90;;;;;;6214597;23;20355;-68
2021/12/03 03:59:10;;;;;;;1.40;0.70;;;19.10;56.00;;;;;;6214577;23;20340;-68
2021/12/03 04:01:36;;;;;;;1.55;0.50;;;19.10;56.00;;;;;;6187522;23;19996;-68
2021/12/03 04:04:01;;;;;;;1.35;0.90;;;19.10;55.90;;;;;;6214560;23;20387;-68
2021/12/03 04:06:27;;;;;;;2.60;0.60;;;19.10;56.00;;;;;;6162953;23;20000;-68
2021/12/03 04:08:53;;;;;;;2.58;0.55;;;19.10;56.00;;;;;;6188039;23;20000;-68
2021/12/03 04:11:20;;;;;;;0.40;0.40;;;19.10;56.00;;;;;;6214441;23;19997;-68
2021/12/03 04:13:46;;;;;;;0.82;0.40;;;19.10;56.00;;;;;;6214316;23;20005;-68
2021/12/03 04:16:11;;;;;;;0.47;0.40;;;19.10;56.00;;;;;;6214114;23;20007;-68
2021/12/03 04:18:37;;;;;;;0.65;0.30;;;19.10;56.00;;;;;;6214207;23;20448;-68
2021/12/03 04:21:03;;;;;;;1.40;0.40;;;19.10;56.10;;;;;;6187950;23;20047;-68
2021/12/03 04:23:29;;;;;;;0.45;0.40;;;19.10;56.10;;;;;;6214013;23;20043;-68
2021/12/03 04:25:54;;;;;;;1.25;0.40;;;19.10;56.10;;;;;;6188409;23;20004;-68
2021/12/03 04:28:20;;;;;;;1.48;0.70;;;19.10;56.10;;;;;;6187939;23;20059;-68
2021/12/03 04:30:46;;;;;;;0.77;0.43;;;19.10;56.10;;;;;;6214273;23;20011;-68
2021/12/03 04:33:12;;;;;;;0.65;0.55;;;19.10;56.10;;;;;;6188679;23;20004;-68
2021/12/03 04:35:38;;;;;;;0.63;0.38;;;19.10;56.10;;;;;;6188218;23;20449;-68
2021/12/03 04:38:03;;;;;;;0.55;0.40;;;19.10;56.10;;;;;;6188383;23;20004;-68
2021/12/03 04:40:29;;;;;;;2.30;0.50;;;19.00;56.10;;;;;;6214726;23;20039;-68
2021/12/03 04:42:55;;;;;;;0.73;0.40;;;19.10;56.10;;;;;;6187974;23;20365;-68
2021/12/03 04:45:22;;;;;;;3.15;0.50;;;19.10;56.20;;;;;;6188142;23;19996;-68
2021/12/03 04:47:48;;;;;;;0.65;0.43;;;19.10;56.10;;;;;;6188218;23;20001;-68
2021/12/03 04:50:14;;;;;;;0.50;0.40;;;19.10;56.20;;;;;;6214534;23;20009;-68
2021/12/03 04:52:40;;;;;;;0.70;0.40;;;19.10;56.20;;;;;;6214607;23;20011;-68
2021/12/03 04:55:06;;;;;;;0.95;0.50;;;19.10;56.20;;;;;;6163598;23;20072;-68
2021/12/03 04:57:32;;;;;;;0.70;0.55;;;19.00;56.20;;;;;;6163186;23;20074;-68
2021/12/03 04:59:57;;;;;;;0.45;0.40;;;19.00;56.20;;;;;;6187736;23;20005;-68
2021/12/03 05:02:25;;;;;;;0.90;0.32;;;19.00;56.20;;;;;;6214506;23;20008;-68
2021/12/03 05:04:52;;;;;;;0.57;0.30;;;19.00;56.20;;;;;;6188559;23;20433;-68
2021/12/03 05:07:42;;;;;;;1.63;0.40;;;19.00;56.20;;;;;;6214428;23;20344;-68
2021/12/03 05:10:08;;;;;;;0.30;0.30;;;19.00;56.20;;;;;;6214501;23;19997;-68
2021/12/03 05:12:34;;;;;;;1.00;0.30;;;19.00;56.30;;;;;;6214262;23;20015;-68
2021/12/03 05:15:00;;;;;;;0.32;0.32;;;19.00;56.30;;;;;;6163448;23;20000;-68
2021/12/03 05:17:25;;;;;;;0.68;0.40;;;19.00;56.30;;;;;;6214986;23;20001;-68
2021/12/03 05:19:51;;;;;;;0.30;0.30;;;19.00;56.30;;;;;;6214889;23;20010;-68
2021/12/03 05:22:16;;;;;;;1.00;0.30;;;19.00;56.30;;;;;;6214906;23;20004;-68
2021/12/03 05:24:45;;;;;;;0.35;0.30;;;19.00;56.40;;;;;;6214661;23;20511;-68
2021/12/03 05:27:15;;;;;;;1.05;0.30;;;19.00;56.30;;;;;;6165205;23;20005;-68
2021/12/03 05:29:41;;;;;;;0.40;0.40;;;19.00;56.40;;;;;;6188686;23;20440;-68
2021/12/03 05:32:07;;;;;;;0.75;0.40;;;19.00;56.40;;;;;;6188828;23;20079;-68
2021/12/03 05:34:33;;;;;;;1.50;0.45;;;19.00;56.40;;;;;;6215173;23;20482;-68
2021/12/03 05:36:59;;;;;;;0.95;0.32;;;19.00;56.40;;;;;;6215427;23;20001;-68
2021/12/03 05:39:24;;;;;;;1.10;0.40;;;19.00;56.40;;;;;;6215188;23;19996;-68
2021/12/03 05:41:50;;;;;;;0.45;0.40;;;19.10;56.50;;;;;;6188414;23;20001;-68
2021/12/03 05:44:15;;;;;;;0.30;0.30;;;19.00;56.40;;;;;;6214603;23;20004;-68
2021/12/03 05:46:41;;;;;;;1.42;0.60;;;19.00;56.50;;;;;;6214506;23;20440;-68
2021/12/03 05:49:07;;;;;;;0.52;0.30;;;19.10;56.50;;;;;;6214828;23;20004;-68
2021/12/03 05:51:33;;;;;;;0.98;0.28;;;19.10;56.50;;;;;;6215140;23;19996;-68
2021/12/03 05:53:58;;;;;;;0.50;0.47;;;19.00;56.50;;;;;;6188109;23;20000;-68
2021/12/03 05:56:24;;;;;;;0.60;0.38;;;19.00;56.50;;;;;;6215017;23;20011;-68
2021/12/03 05:58:50;;;;;;;0.28;0.20;;;19.00;56.60;;;;;;6163045;23;20011;-68
2021/12/03 06:01:16;;;;;;;0.77;0.40;;;19.00;56.50;;;;;;6215019;23;20039;-68
2021/12/03 06:03:42;;;;;;;0.98;0.50;;;19.00;57.50;;;;;;6214730;23;20004;-68
2021/12/03 06:06:08;;;;;;;0.30;0.30;;;19.10;56.60;;;;;;6214614;23;20025;-68
2021/12/03 06:08:33;;;;;;;1.02;0.20;;;19.10;56.60;;;;;;6188144;23;19997;-68
2021/12/03 06:10:59;;;;;;;0.82;0.43;;;19.00;56.60;;;;;;6215083;23;20000;-68
2021/12/03 06:13:24;;;;;;;0.50;0.22;;;19.00;56.60;;;;;;6188342;23;20015;-68
2021/12/03 06:15:50;;;;;;;0.30;0.30;;;19.00;56.60;;;;;;6214955;23;20011;-68
2021/12/03 06:18:16;;;;;;;0.25;0.20;;;19.00;56.60;;;;;;6215063;23;20340;-68
2021/12/03 06:20:41;;;;;;;0.38;0.30;;;19.00;56.60;;;;;;6214843;23;20000;-68
2021/12/03 06:23:07;;;;;;;0.40;0.22;;;19.00;56.60;;;;;;6214612;23;20005;-68
2021/12/03 06:25:32;;;;;;;0.25;0.20;;;19.00;56.70;;;;;;6213412;23;20005;-68
2021/12/03 06:27:58;;;;;;;4.72;0.35;;;19.00;56.70;;;;;;6212573;23;20012;-68
2021/12/03 06:30:24;;;;;;;1.25;0.38;;;19.00;56.70;;;;;;6214481;23;20003;-68
2021/12/03 06:32:51;;;;;;;0.40;0.40;;;19.00;56.70;;;;;;6187998;23;20004;-68
2021/12/03 06:35:17;;;;;;;0.30;0.30;;;19.00;56.70;;;;;;6188058;23;20024;-68
2021/12/03 06:37:42;;;;;;;2.50;0.47;;;19.00;56.70;;;;;;6214324;23;20000;-69
2021/12/03 06:40:10;;;;;;;0.60;0.43;;;19.10;56.80;;;;;;6188228;23;20080;-67
2021/12/03 06:42:36;;;;;;;0.40;0.20;;;19.00;56.80;;;;;;6188136;23;20000;-67
2021/12/03 06:45:05;;;;;;;0.73;0.30;;;19.10;56.70;;;;;;6214213;23;20007;-67
2021/12/03 06:47:31;;;;;;;1.15;0.30;;;19.10;56.70;;;;;;6163794;23;20079;-67
2021/12/03 06:49:57;;;;;;;1.98;0.30;;;19.10;56.70;;;;;;6187841;23;20000;-67
2021/12/03 06:52:23;;;;;;;0.50;0.20;;;19.10;56.70;;;;;;6214900;23;20028;-67
2021/12/03 06:54:55;;;;;;;5.13;0.20;;;19.10;56.60;;;;;;6216171;23;20000;-67
2021/12/03 06:57:21;;;;;;;;;;;19.10;56.60;;;;;;6191649;23;20031;-67
2021/12/03 06:59:46;;;;;;;0.10;0.10;;;19.00;56.50;;;;;;6216008;23;19900;-67
2021/12/03 07:02:13;;;;;;;0.20;0.20;;;19.00;56.70;;;;;;6216202;23;20332;-67
2021/12/03 07:04:40;;;;;;;0.45;0.25;;;19.00;56.70;;;;;;6216275;23;20120;-67
2021/12/03 07:07:05;;;;;;;0.40;0.38;;;19.00;56.60;;;;;;6189557;23;20027;-67
2021/12/03 07:09:31;;;;;;;1.13;0.30;;;19.10;56.70;;;;;;6189943;23;20372;-67
2021/12/03 07:11:57;;;;;;;1.27;0.20;;;19.10;56.60;;;;;;6215857;23;20004;-67
2021/12/03 07:14:22;;;;;;;0.10;0.10;;;19.10;56.60;;;;;;6189909;23;20385;-67
2021/12/03 07:16:48;;;;;;;0.13;0.13;;;19.10;56.60;;;;;;6216180;23;20447;-67
2021/12/03 07:19:13;;;;;;;0.38;0.20;;;19.10;56.50;;;;;;6215986;23;20001;-67
2021/12/03 07:21:40;;;;;;;0.63;0.10;;;19.10;56.50;;;;;;6216215;23;20055;-67
2021/12/03 07:24:06;;;;;;;0.20;0.10;;;19.10;56.50;;;;;;6215947;23;20011;-67
2021/12/03 07:26:31;;;;;;;0.32;0.20;;;19.10;56.50;;;;;;6189278;23;20001;-67
2021/12/03 07:28:57;;;;;;;5.45;0.30;;;19.10;56.60;;;;;;6215877;23;20017;-67
2021/12/03 07:31:23;;;;;;;0.47;0.22;;;19.10;56.50;;;;;;6216039;23;20047;-67
2021/12/03 07:33:49;;;;;;;3.70;0.70;;;19.10;56.40;;;;;;6189308;23;20000;-67
2021/12/03 07:36:14;;;;;;;7.63;1.30;;;19.10;56.50;;;;;;6189079;23;20004;-67
2021/12/03 07:38:40;;;;;;;6.13;1.33;;;19.10;56.50;;;;;;6188994;23;20325;-67
2021/12/03 07:41:06;;;;;;;6.13;1.20;;;19.20;56.60;;;;;;6215126;23;20004;-67
2021/12/03 07:43:31;;;;;;;7.22;1.23;;;19.20;56.50;;;;;;6189171;23;20001;-67
2021/12/03 07:45:57;;;;;;;7.70;1.73;;;19.20;56.50;;;;;;6189137;23;20424;-67
2021/12/03 07:48:23;;;;;;;4.35;1.00;;;19.20;56.50;;;;;;6189286;23;19996;-67
2021/12/03 07:50:50;;;;;;;3.13;0.98;;;19.20;56.50;;;;;;6189474;23;20379;-67
2021/12/03 07:53:19;;;;;;;5.03;1.02;;;19.20;56.50;;;;;;6164591;23;20009;-67
2021/12/03 07:55:46;;;;;;;5.90;1.10;;;19.20;56.50;;;;;;6189540;23;20004;-67
2021/12/03 07:58:11;;;;;;;6.15;1.30;;;19.20;56.50;;;;;;6215762;23;20008;-68
2021/12/03 08:00:37;;;;;;;2.47;0.70;;;19.20;56.50;;;;;;6215487;23;20008;-68
2021/12/03 08:03:03;;;;;;;2.55;1.08;;;19.20;56.50;;;;;;6215336;23;20004;-67
2021/12/03 08:05:28;;;;;;;1.90;0.70;;;19.20;56.50;;;;;;6189369;23;20017;-67
2021/12/03 08:07:54;;;;;;;2.47;0.90;;;19.20;56.50;;;;;;6215435;23;20424;-67
2021/12/03 08:10:20;;;;;;;5.25;0.82;;;19.20;56.50;;;;;;6188760;23;20001;-67
2021/12/03 08:12:45;;;;;;;2.45;0.70;;;19.30;56.60;;;;;;6189249;23;20325;-67
2021/12/03 08:15:12;;;;;;;3.00;0.85;;;19.20;56.50;;;;;;6188926;23;20087;-67
2021/12/03 08:17:37;;;;;;;2.72;0.70;;;19.30;56.60;;;;;;6215594;23;20055;-68
2021/12/03 08:20:04;;;;;;;1.73;0.95;;;19.30;56.60;;;;;;6215390;23;20352;-68
2021/12/03 08:22:30;;;;;;;3.58;0.70;;;19.30;56.60;;;;;;6214957;23;20001;-68
2021/12/03 08:24:56;;;;;;;4.22;0.73;;;19.30;56.60;;;;;;6215484;23;20008;-68
2021/12/03 08:27:21;;;;;;;3.42;0.98;;;19.30;56.60;;;;;;6215335;23;20001;-68
2021/12/03 08:29:47;;;;;;;1.95;0.95;;;19.30;56.60;;;;;;6188722;23;19997;-68
2021/12/03 08:32:13;;;;;;;1.20;0.73;;;19.30;56.60;;;;;;6188889;23;20007;-68
2021/12/03 08:34:38;;;;;;;0.98;0.50;;;19.30;56.60;;;;;;6215421;23;20004;-68
2021/12/03 08:37:06;;;;;;;3.50;0.60;;;19.30;56.60;;;;;;6214977;23;20062;-68
2021/12/03 08:39:32;;;;;;;1.52;0.57;;;19.30;56.60;;;;;;6165203;23;20095;-68
2021/12/03 08:41:57;;;;;;;1.60;0.60;;;19.30;56.60;;;;;;6188699;23;20460;-68
2021/12/03 08:44:23;;;;;;;1.08;0.43;;;19.30;56.60;;;;;;6215235;23;20023;-68
2021/12/03 08:46:57;;;;;;;2.13;0.60;;;19.30;56.60;;;;;;6188900;23;20060;-68
2021/12/03 08:49:30;;;;;;;1.90;0.50;;;19.30;56.60;;;;;;6190689;23;19997;-68
2021/12/03 08:57:26;;;;;;;1.13;0.50;;;19.30;56.60;;;;;;6193251;23;20004;-68
2021/12/03 08:59:53;;;;;;;2.47;0.50;;;19.40;56.70;;;;;;6188647;23;20039;-68
2021/12/03 09:02:19;;;;;;;1.23;0.50;;;19.30;56.70;;;;;;6188419;23;20000;-68
2021/12/03 09:04:45;;;;;;;1.73;0.75;;;19.30;56.70;;;;;;6188844;23;19997;-68
2021/12/03 09:07:11;;;;;;;1.27;0.50;;;19.30;56.70;;;;;;6163565;23;20076;-68
2021/12/03 09:09:36;;;;;;;1.35;0.55;;;19.30;56.70;;;;;;6215045;23;20031;-68
2021/12/03 09:12:02;;;;;;;1.63;0.50;;;19.30;56.70;;;;;;6188674;23;20340;-68
2021/12/03 09:17:18;;;;;;;1.17;0.30;;;19.30;56.70;;;;;;6190254;23;20012;-68
2021/12/03 09:22:41;;;;;;;1.38;0.40;;;19.40;56.80;;;;;;6191987;23;20058;-68
2021/12/03 09:25:09;;;;;;;0.88;0.50;;;19.30;56.70;;;;;;6191269;23;20024;-68
2021/12/03 09:27:35;;;;;;;1.30;0.40;;;19.30;56.80;;;;;;6214772;23;20004;-68
2021/12/03 09:30:02;;;;;;;2.20;0.68;;;19.30;56.80;;;;;;6188582;23;20001;-68
2021/12/03 09:32:31;;;;;;;1.20;0.50;;;19.40;56.80;;;;;;6188692;23;20240;-68
2021/12/03 09:34:57;;;;;;;0.40;0.25;;;19.30;56.80;;;;;;6214555;23;20011;-68
2021/12/03 09:37:23;;;;;;;2.00;0.50;;;19.40;56.80;;;;;;6188498;23;20035;-68
2021/12/03 09:39:48;;;;;;;0.80;0.65;;;19.40;56.80;;;;;;6214881;23;20007;-68
2021/12/03 09:42:15;;;;;;;0.75;0.45;;;19.30;56.80;;;;;;6188417;23;20445;-68
2021/12/03 09:44:43;;;;;;;2.45;0.70;;;19.40;56.80;;;;;;6188537;23;20001;-68
2021/12/03 09:47:09;;;;;;;1.17;0.60;;;19.40;57.80;;;;;;6164229;23;20000;-68
2021/12/03 09:49:35;;;;;;;0.70;0.45;;;19.40;56.80;;;;;;6214489;23;20023;-68
2021/12/03 09:52:13;;;;;;;1.67;0.55;;;19.40;56.80;;;;;;6188413;23;20046;-68
2021/12/03 09:57:11;;;;;;;1.80;0.50;;;19.40;56.90;;;;;;6188552;23;20000;-68
2021/12/03 10:13:09;;;;;;;1.33;0.40;;;19.30;56.90;;;;;;6164371;23;20384;-68
2021/12/03 10:15:42;;;;;;;3.03;0.43;;;19.40;56.90;;;;;;6189455;23;20004;-68
2021/12/03 10:18:21;;;;;;;0.52;0.40;;;19.30;56.90;;;;;;6166106;23;20008;-68
2021/12/03 10:23:57;;;;;;;1.05;0.40;;;19.30;56.90;;;;;;6214352;23;20040;-68
2021/12/03 11:06:50;;;;;;;0.30;0.28;;;19.30;57.10;;;;;;6074884;23;20050;-68
2021/12/03 11:12:40;;;;;;;0.40;0.25;;;19.30;57.10;;;;;;6074883;23;20068;-68
2021/12/03 11:15:34;;;;;;;1.50;0.28;;;19.30;57.10;;;;;;6174510;23;20028;-68
2021/12/03 11:21:42;;;;;;;0.28;0.28;;;19.30;58.10;;;;;;6193506;23;20063;-68
2021/12/03 13:30:54;;;;;;;0.75;0.10;;;19.30;57.40;;;;;;5068990;28;20401;-67
2021/12/03 14:41:58;;;;;;;0.32;0.20;;;19.30;57.50;;;;;;5017612;28;20530;-67
2021/12/03 14:55:36;;;;;;;0.25;0.10;;;19.30;57.50;;;;;;5033669;28;20171;-67
2021/12/03 14:58:03;;;;;;;0.10;0.10;;;19.30;57.60;;;;;;5034786;28;20438;-67
2021/12/03 15:00:49;;;;;;;0.08;0.08;;;19.30;57.60;;;;;;5033632;28;20033;-67
2021/12/03 15:08:23;;;;;;;0.10;0.10;;;19.30;57.50;;;;;;5034320;28;20030;-67
2021/12/03 15:19:44;;;;;;;0.25;0.25;;;19.30;57.70;;;;;;5032127;28;20068;-67
2021/12/03 15:27:58;;;;;;;0.10;0.10;;;19.30;57.60;;;;;;4954421;29;20062;-67
2021/12/03 15:33:09;;;;;;;0.10;0.10;;;19.30;57.60;;;;;;4938358;29;20693;-67
2021/12/03 16:53:01;;;;;;;0.55;0.35;;;19.30;57.60;;;;;;5035015;28;20112;-67
2021/12/03 16:55:27;;;;;;;1.30;0.40;;;19.30;57.70;;;;;;5052788;28;20021;-67
2021/12/03 16:57:54;;;;;;;0.50;0.25;;;19.30;57.60;;;;;;5052355;28;20021;-67
2021/12/03 17:00:38;;;;;;;0.30;0.20;;;19.30;57.60;;;;;;5052608;28;20039;-67
2021/12/03 17:13:33;;;;;;;0.47;0.30;;;19.30;57.60;;;;;;5051349;28;20029;-67
2021/12/03 18:00:19;;;;;;;0.80;0.30;;;19.30;57.60;;;;;;5037640;28;20111;-67
2021/12/03 18:02:50;;;;;;;0.30;0.30;;;19.30;57.60;;;;;;5043292;28;20029;-67
2021/12/03 18:11:24;;;;;;;0.38;0.25;;;19.30;57.60;;;;;;5002675;28;20504;-67
2021/12/03 18:55:38;;;;;;;0.30;0.30;;;19.30;57.80;;;;;;4965263;28;20031;-66
2021/12/03 18:58:04;;;;;;;1.20;0.38;;;19.30;57.80;;;;;;4961581;28;20042;-66
2021/12/03 19:00:41;;;;;;;0.73;0.43;;;19.30;57.80;;;;;;4968915;28;20019;-67
2021/12/03 19:08:35;;;;;;;0.20;0.20;;;19.40;57.80;;;;;;4963903;28;20050;-67
2021/12/03 19:11:06;;;;;;;0.65;0.32;;;19.30;57.80;;;;;;4956893;28;20026;-67
2021/12/03 19:13:37;;;;;;;0.32;0.20;;;19.40;57.80;;;;;;4957847;28;20038;-66
2021/12/03 19:16:12;;;;;;;0.35;0.30;;;19.30;57.70;;;;;;4947639;28;20390;-70
2021/12/03 19:18:43;;;;;;;1.17;0.32;;;19.40;57.90;;;;;;4953667;28;20615;-70
2021/12/03 19:21:12;;;;;;;1.30;0.40;;;19.40;58.00;;;;;;5009671;28;20524;-69
2021/12/03 19:23:39;;;;;;;0.82;0.43;;;19.40;58.00;;;;;;5038688;28;20510;-70
2021/12/03 19:26:05;;;;;;;1.15;0.68;;;19.40;58.10;;;;;;5050390;28;20028;-70
2021/12/03 19:28:32;;;;;;;0.75;0.52;;;19.40;58.10;;;;;;5040469;28;20022;-72
2021/12/03 19:30:58;;;;;;;1.52;0.50;;;19.40;58.10;;;;;;5043343;28;20021;-70
2021/12/03 19:33:25;;;;;;;1.75;0.43;;;19.50;58.20;;;;;;5040639;28;20439;-70
2021/12/03 19:35:51;;;;;;;0.70;0.60;;;19.50;58.70;;;;;;5047151;28;20029;-70
2021/12/03 19:38:18;;;;;;;0.50;0.32;;;19.50;58.20;;;;;;5040050;28;20025;-68
2021/12/03 19:40:58;;;;;;;0.30;0.25;;;19.50;58.20;;;;;;5047178;28;20020;-68
2021/12/03 19:43:34;;;;;;;0.55;0.30;;;19.50;58.20;;;;;;5050810;28;20502;-68
2021/12/03 19:46:04;;;;;;;1.77;0.43;;;19.60;58.20;;;;;;5051338;28;20029;-68
2021/12/03 19:48:40;;;;;;;0.32;0.32;;;19.60;58.20;;;;;;5048052;28;20025;-68
2021/12/03 19:51:15;;;;;;;0.68;0.30;;;19.60;58.30;;;;;;5044205;28;20099;-68
2021/12/03 19:53:48;;;;;;;0.70;0.35;;;19.60;58.30;;;;;;5047638;28;20017;-68
2021/12/03 19:56:14;;;;;;;0.85;0.40;;;19.60;58.20;;;;;;5048509;28;20036;-68
2021/12/03 19:58:41;;;;;;;0.50;0.30;;;19.70;58.30;;;;;;5014999;28;20017;-69
2021/12/03 20:01:07;;;;;;;0.63;0.40;;;19.70;58.30;;;;;;5037755;28;20396;-69
2021/12/03 20:03:33;;;;;;;1.10;0.40;;;19.70;58.20;;;;;;5051846;28;20490;-69
2021/12/03 20:06:00;;;;;;;0.20;0.20;;;19.70;58.30;;;;;;5050673;28;20075;-69
2021/12/03 20:08:26;;;;;;;2.10;0.32;;;19.70;58.20;;;;;;5043468;28;20021;-69
2021/12/03 20:10:56;;;;;;;0.45;0.38;;;19.80;58.20;;;;;;5047483;28;20021;-69
2021/12/03 20:13:25;;;;;;;0.93;0.40;;;19.80;58.20;;;;;;5039783;28;20029;-69
2021/12/03 20:21:10;;;;;;;0.30;0.30;;;19.80;58.20;;;;;;5033028;28;20116;-69
2021/12/03 20:26:23;;;;;;;0.43;0.30;;;19.90;58.30;;;;;;5045327;28;20030;-69
2021/12/03 20:28:56;;;;;;;0.60;0.40;;;19.90;58.20;;;;;;5040107;28;20322;-69
2021/12/03 20:31:26;;;;;;;1.60;0.57;;;19.90;58.30;;;;;;5036995;28;20074;-69
2021/12/03 20:39:16;;;;;;;0.63;0.30;;;20.00;58.20;;;;;;5037628;28;20022;-68
2021/12/03 20:41:49;;;;;;;0.60;0.22;;;20.00;58.30;;;;;;5032824;28;20037;-69
2021/12/03 20:47:36;;;;;;;0.40;0.30;;;20.00;58.30;;;;;;5033009;28;20075;-74
2021/12/03 20:49:38;;;;;;;0.93;0.40;;;20.00;58.30;;;;;;5035835;28;20399;-68
2021/12/03 21:08:39;;;;;;;0.70;0.40;;;20.10;58.20;;;;;;5046334;28;20070;-73
2021/12/03 21:13:46;;;;;;;0.70;0.40;;;20.10;58.20;;;;;;5033930;28;20025;-74
2021/12/03 21:21:30;;;;;;;0.77;0.55;;;20.20;58.20;;;;;;5045631;28;20025;-76
2021/12/03 21:23:57;;;;;;;1.25;0.47;;;20.20;58.20;;;;;;5032153;28;20033;-72
2021/12/03 21:26:24;;;;;;;0.70;0.30;;;20.20;58.20;;;;;;5038451;28;20013;-66
2021/12/03 21:29:08;;;;;;;0.68;0.30;;;20.20;58.10;;;;;;5042993;28;20395;-66
2021/12/03 21:42:25;;;;;;;0.80;0.60;;;20.10;57.90;;;;;;5038121;28;20409;-66
2021/12/03 21:44:51;;;;;;;0.88;0.50;;;20.10;58.00;;;;;;5042753;28;20474;-66
2021/12/03 21:47:17;;;;;;;0.50;0.30;;;20.10;58.00;;;;;;5044100;28;20021;-66
2021/12/03 21:49:42;;;;;;;0.63;0.35;;;20.10;57.90;;;;;;5045072;28;20380;-66